Time;durP1;ratioP1;P1;durP2;ratioP2;P2;SDS_P1;SDS_P2;PMS_P1;PMS_P2;Temp;Humidity;BMP_temperature;BMP_pressure;BME280_temperature;BME280_humidity;BME280_pressure;Samples;Min_cycle;Max_cycle;Signal;HPM_P1;HPM_P2
2020/12/09 00:02:07;;;;;;;31.30;18.60;;;;;;;1.41;100.00;97255.25;3795519;77;43478;-22
2020/12/09 00:07:13;;;;;;;32.10;18.57;;;;;;;1.32;100.00;97254.72;3726457;79;44205;-22
2020/12/09 00:12:19;;;;;;;31.70;17.63;;;;;;;1.22;100.00;97252.86;3721128;79;44804;-22
2020/12/09 00:17:25;;;;;;;30.97;18.27;;;;;;;1.14;100.00;97252.66;3795925;77;44047;-22
2020/12/09 00:22:31;;;;;;;29.93;17.27;;;;;;;1.04;100.00;97242.01;3676253;79;44452;-22
2020/12/09 00:27:37;;;;;;;34.60;17.50;;;;;;;1.06;100.00;97246.67;3786384;78;44090;-22
2020/12/09 00:32:43;;;;;;;34.90;18.97;;;;;;;1.05;100.00;97234.41;3716602;78;43321;-22
2020/12/09 00:37:49;;;;;;;32.90;18.30;;;;;;;1.06;100.00;97242.69;3783683;78;43455;-22
2020/12/09 00:42:55;;;;;;;33.83;18.83;;;;;;;1.09;100.00;97248.25;3735682;78;44027;-22
2020/12/09 00:48:00;;;;;;;33.17;18.40;;;;;;;1.15;100.00;97245.05;3713595;79;43735;-22
2020/12/09 00:53:08;;;;;;;33.27;18.97;;;;;;;1.11;100.00;97254.27;3707792;79;44045;-22
2020/12/09 00:58:15;;;;;;;34.40;19.10;;;;;;;1.14;100.00;97247.84;3795069;78;43459;-22
2020/12/09 01:03:23;;;;;;;32.83;18.23;;;;;;;1.02;100.00;97250.58;3789694;77;43325;-22
2020/12/09 01:08:30;;;;;;;34.23;19.23;;;;;;;1.07;100.00;97248.86;3788586;78;42898;-22
2020/12/09 01:13:36;;;;;;;31.70;18.80;;;;;;;1.14;100.00;97261.94;3751840;78;44058;-22
2020/12/09 01:18:43;;;;;;;35.80;19.53;;;;;;;1.13;100.00;97262.91;3784965;77;44431;-23
2020/12/09 01:23:49;;;;;;;32.90;18.00;;;;;;;1.11;100.00;97278.14;3795730;78;43379;-23
2020/12/09 01:28:55;;;;;;;32.13;17.13;;;;;;;1.13;100.00;97272.19;3774679;78;43611;-23
2020/12/09 01:34:01;;;;;;;27.97;16.50;;;;;;;1.05;100.00;97272.01;3789907;77;44031;-23
2020/12/09 01:39:07;;;;;;;36.43;18.93;;;;;;;1.05;100.00;97275.52;3779822;77;43128;-24
2020/12/09 01:44:13;;;;;;;31.90;18.03;;;;;;;1.02;100.00;97266.95;3766356;78;43721;-23
2020/12/09 01:49:19;;;;;;;35.00;17.73;;;;;;;1.06;100.00;97260.44;3780566;77;44538;-23
2020/12/09 01:54:25;;;;;;;35.90;18.67;;;;;;;1.08;100.00;97259.82;3756165;78;44099;-22
2020/12/09 01:59:31;;;;;;;33.63;19.07;;;;;;;1.06;100.00;97261.76;3741963;79;43996;-22
2020/12/09 02:04:37;;;;;;;31.53;17.30;;;;;;;1.01;100.00;97236.95;3746465;78;43380;-22
2020/12/09 02:09:43;;;;;;;34.87;18.47;;;;;;;1.05;100.00;97233.55;3760240;78;43325;-22
2020/12/09 02:14:49;;;;;;;33.23;18.13;;;;;;;0.87;100.00;97262.00;3738855;79;43461;-22
2020/12/09 02:19:55;;;;;;;34.50;17.43;;;;;;;0.72;100.00;97272.55;3744976;78;43278;-23
2020/12/09 02:25:01;;;;;;;33.67;17.90;;;;;;;0.77;100.00;97300.83;3754692;79;43116;-22
2020/12/09 02:30:07;;;;;;;33.40;16.70;;;;;;;0.84;100.00;97300.69;3740957;79;42864;-22
2020/12/09 02:35:13;;;;;;;40.67;18.97;;;;;;;0.88;100.00;97306.08;3758881;78;43315;-22
2020/12/09 02:40:18;;;;;;;35.60;18.97;;;;;;;0.91;100.00;97307.16;3742635;78;43715;-23
2020/12/09 02:45:25;;;;;;;37.20;18.70;;;;;;;0.88;100.00;97303.42;3758709;77;43995;-23
2020/12/09 02:50:31;;;;;;;35.73;18.23;;;;;;;0.85;100.00;97300.19;3747368;77;43988;-23
2020/12/09 02:55:37;;;;;;;37.63;20.07;;;;;;;0.94;100.00;97298.59;3796789;78;43247;-22
2020/12/09 03:00:44;;;;;;;35.70;17.73;;;;;;;0.99;100.00;97299.89;3731315;78;42702;-22
2020/12/09 03:05:51;;;;;;;28.57;15.80;;;;;;;0.99;100.00;97300.39;3731940;78;43686;-23
2020/12/09 03:10:57;;;;;;;36.87;19.17;;;;;;;0.98;100.00;97293.40;3789799;77;44061;-22
2020/12/09 03:16:04;;;;;;;37.97;19.00;;;;;;;0.97;100.00;97286.41;3659985;79;44527;-22
2020/12/09 03:21:09;;;;;;;33.37;18.50;;;;;;;0.98;100.00;97280.14;3786666;77;43718;-22
2020/12/09 03:26:16;;;;;;;43.87;21.23;;;;;;;1.01;100.00;97275.41;3709903;79;44463;-22
2020/12/09 03:31:22;;;;;;;51.17;21.73;;;;;;;1.07;100.00;97274.05;3785504;78;43678;-22
2020/12/09 03:36:28;;;;;;;34.90;19.17;;;;;;;1.11;100.00;97267.53;3721854;79;43475;-22
2020/12/09 03:41:34;;;;;;;40.00;21.17;;;;;;;1.13;100.00;97276.17;3727034;79;44079;-22
2020/12/09 03:46:40;;;;;;;36.43;19.57;;;;;;;1.16;100.00;97279.90;3785115;77;43720;-23
2020/12/09 03:51:45;;;;;;;48.27;21.93;;;;;;;1.16;100.00;97289.18;3787626;77;43332;-22
2020/12/09 03:56:52;;;;;;;45.00;20.50;;;;;;;1.20;100.00;97287.10;3728839;78;44089;-22
2020/12/09 04:01:58;;;;;;;50.47;20.97;;;;;;;1.20;100.00;97287.96;3709520;78;43743;-23
2020/12/09 04:07:03;;;;;;;39.73;19.77;;;;;;;1.18;100.00;97308.47;3801895;77;43968;-23
2020/12/09 04:12:09;;;;;;;41.13;20.37;;;;;;;1.10;100.00;97313.59;3793305;77;42866;-23
2020/12/09 04:17:15;;;;;;;46.93;21.20;;;;;;;1.15;100.00;97315.84;3784258;77;44158;-23
2020/12/09 04:22:22;;;;;;;36.83;18.50;;;;;;;1.09;100.00;97315.88;3794693;77;44809;-23
2020/12/09 04:27:28;;;;;;;39.37;19.33;;;;;;;1.07;100.00;97315.16;3768886;77;44054;-22
2020/12/09 04:32:34;;;;;;;43.73;20.57;;;;;;;1.05;100.00;97307.34;3725381;79;43405;-23
2020/12/09 04:37:41;;;;;;;44.43;19.97;;;;;;;1.04;100.00;97310.97;3721559;79;44764;-22
2020/12/09 04:42:57;;;;;;;41.10;19.87;;;;;;;1.07;100.00;97316.48;3795946;77;44503;-22
2020/12/09 04:48:08;;;;;;;43.50;20.50;;;;;;;1.15;100.00;97323.30;3720906;78;43398;-23
2020/12/09 04:53:20;;;;;;;44.57;20.60;;;;;;;1.15;100.00;97335.24;3722639;79;43379;-22
2020/12/09 04:58:39;;;;;;;44.80;20.70;;;;;;;1.17;100.00;97333.31;3742488;78;44108;-22
2020/12/09 05:03:47;;;;;;;48.13;21.23;;;;;;;1.20;100.00;97346.33;3734810;79;43420;-23
2020/12/09 05:08:56;;;;;;;60.30;21.83;;;;;;;1.21;100.00;97348.02;3760818;78;44414;-22
2020/12/09 05:14:05;;;;;;;70.60;24.00;;;;;;;1.26;100.00;97348.09;3757174;79;43333;-23
2020/12/09 05:19:11;;;;;;;80.03;23.90;;;;;;;1.26;100.00;97361.36;3758932;79;43436;-23
2020/12/09 05:24:19;;;;;;;52.23;18.80;;;;;;;1.25;100.00;97357.02;3734491;78;43687;-23
2020/12/09 05:29:25;;;;;;;145.40;24.77;;;;;;;1.26;100.00;97358.23;3754996;79;43740;-23
2020/12/09 05:34:33;;;;;;;70.63;23.47;;;;;;;1.27;100.00;97363.04;3762401;77;43123;-22
2020/12/09 05:39:51;;;;;;;56.50;22.17;;;;;;;1.32;100.00;97351.56;3751148;78;43721;-22
2020/12/09 05:44:58;;;;;;;56.83;24.23;;;;;;;1.32;100.00;97351.56;3735984;79;44042;-22
2020/12/09 05:50:04;;;;;;;60.47;25.10;;;;;;;1.33;100.00;97366.52;3743197;77;43458;-23
2020/12/09 05:55:10;;;;;;;71.77;23.53;;;;;;;1.34;100.00;97363.73;3754804;78;43167;-23
2020/12/09 06:00:17;;;;;;;75.40;23.60;;;;;;;1.39;100.00;97377.93;3751502;79;43528;-22
2020/12/09 06:05:23;;;;;;;62.93;23.77;;;;;;;1.37;100.00;97382.52;3743854;78;44087;-23
2020/12/09 06:10:29;;;;;;;56.57;23.67;;;;;;;1.37;100.00;97375.89;3743639;78;42933;-23
2020/12/09 06:15:35;;;;;;;66.43;25.20;;;;;;;1.47;100.00;97371.48;3754878;79;44078;-23
2020/12/09 06:20:43;;;;;;;68.63;25.93;;;;;;;1.51;100.00;97374.24;3742223;79;43038;-23
2020/12/09 06:25:50;;;;;;;57.03;23.60;;;;;;;1.54;100.00;97376.64;3744320;78;43717;-23
2020/12/09 06:30:58;;;;;;;52.63;20.57;;;;;;;1.54;100.00;97373.99;3756018;79;43452;-23
2020/12/09 06:36:18;;;;;;;53.70;23.23;;;;;;;1.57;100.00;97390.13;3732335;77;43393;-23
2020/12/09 06:41:24;;;;;;;50.23;23.30;;;;;;;1.61;100.00;97396.02;3749405;78;43737;-23
2020/12/09 06:46:38;;;;;;;80.57;25.97;;;;;;;1.63;100.00;97404.70;3739419;79;44194;-23
2020/12/09 06:51:45;;;;;;;112.47;26.33;;;;;;;1.63;100.00;97404.70;3755060;77;43697;-23
2020/12/09 06:57:13;;;;;;;68.33;24.87;;;;;;;1.59;100.00;97412.59;3773428;77;44131;-23
2020/12/09 07:02:29;;;;;;;75.00;26.63;;;;;;;1.57;100.00;97423.81;3762389;77;44064;-24
2020/12/09 07:07:37;;;;;;;65.50;24.50;;;;;;;1.63;100.00;97441.87;3775253;78;43999;-24
2020/12/09 07:12:43;;;;;;;100.63;28.47;;;;;;;1.64;100.00;97441.76;3770504;77;43375;-22
2020/12/09 07:17:49;;;;;;;71.73;27.23;;;;;;;1.67;100.00;97438.81;3772701;78;43509;-23
2020/12/09 07:22:55;;;;;;;78.70;30.53;;;;;;;1.68;100.00;97440.51;3776580;78;44106;-23
2020/12/09 07:28:01;;;;;;;82.37;27.33;;;;;;;1.68;100.00;97444.48;3774385;77;44079;-23
2020/12/09 07:33:07;;;;;;;74.53;27.97;;;;;;;1.73;100.00;97457.38;3765347;77;44022;-23
2020/12/09 07:38:13;;;;;;;81.27;26.37;;;;;;;1.73;100.00;97457.88;3773075;78;43758;-23
2020/12/09 07:43:19;;;;;;;63.23;26.67;;;;;;;1.76;100.00;97471.73;3764460;78;43701;-22
2020/12/09 07:48:30;;;;;;;74.77;27.27;;;;;;;1.78;100.00;97487.52;3762081;78;43967;-22
2020/12/09 07:53:35;;;;;;;61.77;25.57;;;;;;;1.79;100.00;97472.80;3768660;77;43724;-23
2020/12/09 07:58:41;;;;;;;79.83;27.83;;;;;;;1.80;100.00;97481.13;3791202;77;43094;-23
2020/12/09 08:03:50;;;;;;;92.47;28.17;;;;;;;1.79;100.00;97493.19;3812559;77;43459;-23
2020/12/09 08:08:56;;;;;;;128.87;31.80;;;;;;;1.85;100.00;97494.02;3808904;77;43376;-24
2020/12/09 08:14:03;;;;;;;73.97;25.43;;;;;;;1.79;100.00;97500.69;3789320;78;44096;-23
2020/12/09 08:19:11;;;;;;;96.70;26.83;;;;;;;1.80;100.00;97503.70;3723756;78;43582;-23
2020/12/09 08:24:17;;;;;;;132.10;27.07;;;;;;;1.83;100.00;97511.89;3800995;77;44507;-23
2020/12/09 08:29:24;;;;;;;120.67;31.20;;;;;;;1.80;100.00;97519.64;3692983;80;44933;-23
2020/12/09 08:34:29;;;;;;;217.53;33.53;;;;;;;1.76;100.00;97520.85;3795058;77;43726;-22
2020/12/09 08:39:35;;;;;;;138.93;30.33;;;;;;;1.74;100.00;97513.49;3730813;79;44899;-23
2020/12/09 08:44:41;;;;;;;103.50;26.53;;;;;;;1.78;100.00;97516.73;3778275;78;43716;-23
2020/12/09 08:49:49;;;;;;;114.90;29.47;;;;;;;1.78;100.00;97514.94;3728409;79;43684;-23
2020/12/09 08:54:55;;;;;;;120.30;30.30;;;;;;;1.82;100.00;97519.00;3721091;79;42995;-22
2020/12/09 09:00:01;;;;;;;155.40;30.13;;;;;;;1.79;100.00;97519.75;3764742;78;43349;-23
2020/12/09 09:05:07;;;;;;;113.30;29.53;;;;;;;1.80;100.00;97508.16;3766427;78;43343;-23
2020/12/09 09:10:13;;;;;;;67.47;26.53;;;;;;;1.90;100.00;97498.94;3766075;78;44010;-22
2020/12/09 09:15:19;;;;;;;75.87;27.00;;;;;;;1.89;100.00;97502.56;3687395;80;44089;-22
2020/12/09 09:20:25;;;;;;;68.27;25.80;;;;;;;1.99;100.00;97508.78;3766762;77;43415;-23
2020/12/09 09:25:33;;;;;;;66.43;25.13;;;;;;;2.06;100.00;97521.06;3764680;78;44045;-23
2020/12/09 09:30:39;;;;;;;65.30;23.97;;;;;;;2.06;100.00;97520.56;3769133;78;43730;-23
2020/12/09 09:35:44;;;;;;;65.93;24.67;;;;;;;2.17;100.00;97530.80;3771767;77;44129;-23
2020/12/09 09:40:50;;;;;;;63.93;25.63;;;;;;;2.34;100.00;97537.33;3763710;77;44751;-23
2020/12/09 09:45:58;;;;;;;62.90;26.73;;;;;;;2.40;100.00;97534.98;3770177;78;42696;-23
2020/12/09 09:51:04;;;;;;;65.03;25.53;;;;;;;2.42;100.00;97538.83;3755364;78;43463;-23
2020/12/09 09:56:10;;;;;;;59.43;23.73;;;;;;;2.50;100.00;97544.33;3770461;77;43718;-23
2020/12/09 10:01:16;;;;;;;62.20;24.97;;;;;;;2.57;100.00;97549.95;3755728;79;43691;-23
2020/12/09 10:06:22;;;;;;;75.23;28.47;;;;;;;2.67;100.00;97556.16;3758910;79;44528;-23
2020/12/09 10:11:28;;;;;;;71.47;28.90;;;;;;;2.74;100.00;97548.02;3747942;78;43403;-23
2020/12/09 10:16:35;;;;;;;64.40;27.73;;;;;;;2.86;100.00;97547.92;3744424;78;43463;-23
2020/12/09 10:21:41;;;;;;;55.70;23.30;;;;;;;2.94;100.00;97542.77;3754851;79;43718;-23
2020/12/09 10:26:47;;;;;;;56.10;23.90;;;;;;;2.98;100.00;97545.52;3762516;77;43994;-23
2020/12/09 10:31:54;;;;;;;45.67;21.80;;;;;;;3.07;100.00;97546.03;3757068;79;44129;-23
2020/12/09 10:37:00;;;;;;;48.20;22.47;;;;;;;3.08;100.00;97543.73;3759218;79;43692;-23
2020/12/09 10:42:05;;;;;;;51.17;22.33;;;;;;;3.03;100.00;97532.64;3758809;77;43338;-23
2020/12/09 10:47:12;;;;;;;52.03;23.87;;;;;;;3.03;100.00;97520.66;3746129;77;43560;-23
2020/12/09 10:52:18;;;;;;;59.47;23.90;;;;;;;2.89;100.00;97498.42;3724519;77;43990;-23
2020/12/09 10:57:24;;;;;;;56.27;24.43;;;;;;;2.91;100.00;97507.11;3741209;77;44027;-23
2020/12/09 11:02:30;;;;;;;55.63;24.33;;;;;;;2.98;100.00;97514.06;3775233;78;43952;-24
2020/12/09 11:07:36;;;;;;;49.87;22.40;;;;;;;3.03;100.00;97514.02;3766864;78;44016;-23
2020/12/09 11:12:43;;;;;;;51.53;23.13;;;;;;;2.99;100.00;97521.08;3765366;77;44149;-23
2020/12/09 11:17:50;;;;;;;50.13;21.60;;;;;;;2.92;100.00;97523.44;3764208;78;43674;-23
2020/12/09 11:22:57;;;;;;;45.10;20.43;;;;;;;3.04;100.00;97517.03;3771393;77;43662;-23
2020/12/09 11:28:03;;;;;;;38.73;17.97;;;;;;;3.07;100.00;97518.09;3762084;77;44066;-23
2020/12/09 11:33:10;;;;;;;40.60;19.63;;;;;;;3.24;100.00;97531.70;3768752;77;43364;-23
2020/12/09 11:38:16;;;;;;;42.37;20.80;;;;;;;3.31;100.00;97521.34;3764933;78;44459;-23
2020/12/09 11:43:22;;;;;;;43.23;19.20;;;;;;;3.35;100.00;97530.25;3771445;78;44038;-22
2020/12/09 11:48:28;;;;;;;37.97;18.70;;;;;;;3.49;100.00;97514.85;3760412;78;43411;-23
2020/12/09 11:53:34;;;;;;;34.70;17.97;;;;;;;3.49;100.00;97510.86;3763967;78;43452;-23
2020/12/09 11:58:40;;;;;;;36.03;18.33;;;;;;;3.57;100.00;97519.02;3772653;77;43457;-23
2020/12/09 12:03:47;;;;;;;35.10;17.00;;;;;;;3.57;100.00;97509.70;3771056;78;43685;-23
2020/12/09 12:08:54;;;;;;;33.83;16.50;;;;;;;3.57;100.00;97505.70;3662366;79;44070;-23
2020/12/09 12:14:00;;;;;;;32.10;16.10;;;;;;;3.62;100.00;97508.77;3689217;79;44039;-23
2020/12/09 12:19:06;;;;;;;27.17;15.27;;;;;;;3.67;100.00;97515.00;3660942;80;44095;-23
2020/12/09 12:24:12;;;;;;;35.63;18.30;;;;;;;3.69;100.00;97520.56;3700473;80;43407;-23
2020/12/09 12:29:17;;;;;;;28.30;15.70;;;;;;;3.78;100.00;97519.36;3658269;79;43436;-23
2020/12/09 12:34:23;;;;;;;31.43;17.00;;;;;;;3.75;100.00;97526.30;3697384;80;44074;-23
2020/12/09 12:39:29;;;;;;;32.23;17.13;;;;;;;3.74;100.00;97521.95;3705439;80;43707;-23
2020/12/09 12:44:35;;;;;;;35.53;18.03;;;;;;;3.69;100.00;97525.89;3679877;79;44011;-23
2020/12/09 12:49:43;;;;;;;37.93;18.83;;;;;;;3.58;100.00;97519.37;3675790;80;44499;-23
2020/12/09 12:54:49;;;;;;;38.43;18.97;;;;;;;3.60;100.00;97520.55;3679103;80;44176;-23
2020/12/09 12:59:55;;;;;;;39.60;18.77;;;;;;;3.50;100.00;97520.53;3730126;79;44477;-23
2020/12/09 13:05:01;;;;;;;37.10;18.70;;;;;;;3.53;100.00;97527.75;3727592;79;44657;-23
2020/12/09 13:10:06;;;;;;;43.93;21.23;;;;;;;3.51;100.00;97519.55;3784884;78;44092;-23
2020/12/09 13:15:12;;;;;;;44.17;20.77;;;;;;;3.55;100.00;97524.97;3728061;78;44942;-23
2020/12/09 13:20:18;;;;;;;47.33;22.30;;;;;;;3.51;100.00;97526.22;3797169;77;43681;-23
2020/12/09 13:25:23;;;;;;;52.37;22.63;;;;;;;3.48;100.00;97535.80;3732668;79;43384;-23
2020/12/09 13:30:29;;;;;;;48.93;21.00;;;;;;;3.44;100.00;97531.75;3772003;77;44079;-23
2020/12/09 13:35:35;;;;;;;52.70;21.17;;;;;;;3.33;100.00;97530.91;3725958;79;43444;-23
2020/12/09 13:40:42;;;;;;;49.77;21.63;;;;;;;3.36;100.00;97538.59;3727993;78;43685;-23
2020/12/09 13:45:50;;;;;;;53.13;23.00;;;;;;;3.31;100.00;97532.85;3654075;79;43742;-23
2020/12/09 13:50:57;;;;;;;50.53;22.27;;;;;;;3.33;100.00;97534.03;3791930;77;43074;-24
2020/12/09 13:56:04;;;;;;;55.30;22.30;;;;;;;3.31;100.00;97534.19;3720628;79;43349;-23
2020/12/09 14:01:14;;;;;;;60.53;24.17;;;;;;;3.16;100.00;97526.23;3766966;78;44032;-23
2020/12/09 14:11:27;;;;;;;60.20;24.17;;;;;;;3.16;100.00;97531.55;4027658;73;31109;-23
2020/12/09 14:16:35;;;;;;;57.33;23.07;;;;;;;3.03;100.00;97533.14;3975922;73;43465;-22
2020/12/09 14:21:42;;;;;;;53.23;21.10;;;;;;;2.98;100.00;97532.69;3959086;73;44458;-22
2020/12/09 14:26:50;;;;;;;51.37;20.93;;;;;;;2.93;100.00;97536.62;3956079;73;44020;-22
2020/12/09 14:31:56;;;;;;;57.70;22.33;;;;;;;2.93;100.00;97533.09;3959664;73;43456;-24
2020/12/09 14:37:04;;;;;;;54.73;21.07;;;;;;;2.96;100.00;97523.52;3958029;73;44049;-22
2020/12/09 14:42:10;;;;;;;53.30;20.87;;;;;;;2.87;100.00;97533.66;3981989;73;44005;-22
2020/12/09 14:47:21;;;;;;;56.20;22.00;;;;;;;2.89;100.00;97535.66;3960223;73;43416;-22
2020/12/09 14:52:30;;;;;;;53.50;21.60;;;;;;;2.93;100.00;97537.09;3969347;73;44043;-22
2020/12/09 14:57:36;;;;;;;63.47;23.30;;;;;;;2.91;100.00;97534.58;3965747;73;43691;-24
2020/12/09 15:02:45;;;;;;;58.50;23.23;;;;;;;2.82;100.00;97533.20;3992354;73;43406;-26
2020/12/09 15:07:52;;;;;;;62.63;23.97;;;;;;;2.78;100.00;97539.28;3969948;73;43972;-27
2020/12/09 15:12:58;;;;;;;64.07;23.60;;;;;;;2.85;100.00;97544.91;3864410;76;43306;-26
2020/12/09 15:18:04;;;;;;;59.17;22.23;;;;;;;2.87;100.00;97545.63;3882461;76;43448;-26
2020/12/09 15:23:10;;;;;;;67.40;25.30;;;;;;;2.86;100.00;97548.75;3861767;76;43713;-26
2020/12/09 15:28:17;;;;;;;68.80;24.83;;;;;;;2.89;100.00;97554.28;3856534;76;44533;-26
2020/12/09 15:33:23;;;;;;;67.10;25.23;;;;;;;2.93;100.00;97551.72;3876930;76;44581;-27
2020/12/09 15:38:29;;;;;;;75.00;24.90;;;;;;;2.95;100.00;97551.11;3902521;75;44577;-26
2020/12/09 15:43:36;;;;;;;67.57;22.67;;;;;;;2.87;100.00;97549.61;3903283;75;42974;-26
2020/12/09 15:48:42;;;;;;;54.33;22.27;;;;;;;2.91;100.00;97564.31;3873712;76;44053;-26
2020/12/09 15:53:48;;;;;;;69.20;24.73;;;;;;;2.95;100.00;97564.41;3906363;75;44052;-27
2020/12/09 15:58:55;;;;;;;60.17;23.47;;;;;;;3.02;100.00;97566.88;3906852;75;44007;-26
2020/12/09 16:04:02;;;;;;;70.50;25.13;;;;;;;3.05;100.00;97563.95;3845810;76;43370;-26
2020/12/09 16:09:08;;;;;;;59.57;22.13;;;;;;;3.03;100.00;97557.91;3885294;75;43372;-26
2020/12/09 16:14:14;;;;;;;54.47;22.13;;;;;;;3.05;100.00;97559.13;3948488;74;44415;-26
2020/12/09 16:19:20;;;;;;;51.73;21.57;;;;;;;3.04;100.00;97554.78;3942196;74;43089;-26
2020/12/09 16:24:26;;;;;;;52.20;22.10;;;;;;;2.95;100.00;97560.89;3928440;74;43694;-26
2020/12/09 16:29:32;;;;;;;47.97;21.17;;;;;;;2.88;100.00;97552.63;3926287;74;43654;-26
2020/12/09 16:34:39;;;;;;;51.83;21.37;;;;;;;2.83;100.00;97562.81;3948849;73;42818;-26
2020/12/09 16:39:45;;;;;;;54.73;21.70;;;;;;;2.78;100.00;97564.05;3939822;74;44029;-26
2020/12/09 16:44:52;;;;;;;54.40;22.50;;;;;;;2.76;100.00;97562.50;3931141;74;43299;-24
2020/12/09 16:49:59;;;;;;;49.20;21.33;;;;;;;2.79;100.00;97564.91;3945933;74;43699;-22
2020/12/09 16:55:08;;;;;;;48.83;20.63;;;;;;;2.83;100.00;97562.81;3956246;73;43668;-27
2020/12/09 17:00:14;;;;;;;53.47;20.60;;;;;;;2.87;100.00;97560.25;3930379;74;43714;-26
2020/12/09 17:05:20;;;;;;;56.80;21.80;;;;;;;2.81;100.00;97568.28;3930032;74;43333;-26
2020/12/09 17:10:27;;;;;;;69.67;23.50;;;;;;;2.75;100.00;97570.13;3952640;73;43719;-27
2020/12/09 17:15:36;;;;;;;61.93;23.07;;;;;;;2.77;100.00;97580.16;3990898;73;43747;-27
2020/12/09 17:20:41;;;;;;;59.30;22.93;;;;;;;2.84;100.00;97572.48;4011843;73;43038;-27
2020/12/09 17:25:47;;;;;;;56.43;21.77;;;;;;;2.84;100.00;97577.80;3978216;73;44026;-26
2020/12/09 17:30:53;;;;;;;55.67;21.53;;;;;;;2.86;100.00;97585.17;3997337;73;44031;-26
2020/12/09 17:35:59;;;;;;;67.83;23.53;;;;;;;2.90;100.00;97588.75;4010673;73;44095;-26
2020/12/09 17:41:06;;;;;;;50.80;20.47;;;;;;;2.89;100.00;97587.55;3993362;73;43491;-26
2020/12/09 17:46:15;;;;;;;47.77;19.17;;;;;;;2.92;100.00;97592.60;3985005;73;43507;-26
2020/12/09 17:51:21;;;;;;;57.73;21.43;;;;;;;2.94;100.00;97589.33;3989448;73;43349;-26
2020/12/09 17:56:27;;;;;;;56.90;20.80;;;;;;;2.97;100.00;97586.88;3986915;73;43710;-27
2020/12/09 18:01:33;;;;;;;52.17;20.17;;;;;;;2.98;100.00;97588.56;3989447;73;43305;-26
2020/12/09 18:06:40;;;;;;;54.33;20.27;;;;;;;2.96;100.00;97584.72;3992203;73;44170;-26
2020/12/09 18:11:46;;;;;;;48.73;19.93;;;;;;;2.94;100.00;97581.34;3975782;73;43038;-26
2020/12/09 18:16:55;;;;;;;57.57;19.67;;;;;;;2.97;100.00;97584.22;3957391;74;43417;-26
2020/12/09 18:22:06;;;;;;;43.77;17.27;;;;;;;2.88;100.00;97571.25;3956118;74;43983;-27
2020/12/09 18:27:14;;;;;;;51.90;19.77;;;;;;;2.90;100.00;97570.61;3959590;74;44088;-27
2020/12/09 18:32:26;;;;;;;51.83;19.37;;;;;;;2.88;100.00;97567.27;3963847;74;43407;-26
2020/12/09 18:37:36;;;;;;;48.23;18.50;;;;;;;2.83;100.00;97575.62;3990254;74;43722;-27
2020/12/09 18:42:43;;;;;;;44.47;18.20;;;;;;;2.81;100.00;97582.05;3974206;74;43320;-26
2020/12/09 18:47:49;;;;;;;45.63;19.30;;;;;;;2.69;100.00;97575.49;3909428;74;43102;-26
2020/12/09 18:52:57;;;;;;;43.80;17.47;;;;;;;2.73;100.00;97568.08;3677693;78;42985;-26
2020/12/09 18:58:06;;;;;;;46.73;18.27;;;;;;;2.74;100.00;97575.09;3682143;78;43889;-25
2020/12/09 19:03:11;;;;;;;44.03;18.20;;;;;;;2.84;100.00;97577.80;3685585;78;44038;-25
2020/12/09 19:08:17;;;;;;;41.73;17.90;;;;;;;2.87;100.00;97577.55;3658279;78;44192;-25
2020/12/09 19:13:23;;;;;;;39.40;17.93;;;;;;;2.88;100.00;97569.92;3692429;78;44504;-25
2020/12/09 19:18:29;;;;;;;42.77;18.33;;;;;;;2.93;100.00;97575.66;3676199;78;43698;-25
2020/12/09 19:23:35;;;;;;;46.47;17.87;;;;;;;2.85;100.00;97582.16;3705278;78;43676;-25
2020/12/09 19:28:41;;;;;;;41.97;17.07;;;;;;;2.78;100.00;97581.34;3684811;78;44075;-25
2020/12/09 19:33:47;;;;;;;43.47;18.00;;;;;;;2.78;100.00;97594.64;3685237;80;43666;-25
2020/12/09 19:38:52;;;;;;;39.57;17.30;;;;;;;2.77;100.00;97586.30;3685827;78;44078;-25
2020/12/09 19:43:59;;;;;;;38.20;17.33;;;;;;;2.75;100.00;97594.92;3672389;78;43412;-25
2020/12/09 19:49:05;;;;;;;46.17;16.93;;;;;;;2.73;100.00;97599.53;3681802;77;43346;-25
2020/12/09 19:54:11;;;;;;;41.33;17.13;;;;;;;2.75;100.00;97588.75;3731716;77;43459;-25
2020/12/09 19:59:17;;;;;;;43.97;17.07;;;;;;;2.71;100.00;97590.84;3720523;78;44094;-25
2020/12/09 20:04:23;;;;;;;53.23;17.10;;;;;;;2.74;100.00;97581.73;3714195;78;43344;-25
2020/12/09 20:09:29;;;;;;;41.03;17.07;;;;;;;2.71;100.00;97590.84;3754222;77;43689;-21
2020/12/09 20:14:38;;;;;;;64.10;17.97;;;;;;;2.77;100.00;97598.27;3748544;77;43976;-21
2020/12/09 20:19:44;;;;;;;42.63;16.97;;;;;;;2.78;100.00;97599.95;3748475;78;43176;-21
2020/12/09 20:24:50;;;;;;;56.07;18.53;;;;;;;2.81;100.00;97607.32;3761996;77;44032;-21
2020/12/09 20:29:56;;;;;;;89.07;20.57;;;;;;;2.77;100.00;97604.92;3744064;78;44248;-21
2020/12/09 20:35:02;;;;;;;72.10;18.70;;;;;;;2.73;100.00;97614.16;3727755;78;44090;-21
2020/12/09 20:40:07;;;;;;;155.70;23.37;;;;;;;2.75;100.00;97612.22;3684176;78;43726;-21
2020/12/09 20:45:15;;;;;;;115.53;19.73;;;;;;;2.76;100.00;97613.88;3743800;78;43408;-21
2020/12/09 20:50:21;;;;;;;46.57;17.30;;;;;;;2.73;100.00;97611.50;3753705;78;43718;-21
2020/12/09 20:55:27;;;;;;;41.87;16.87;;;;;;;2.75;100.00;97608.22;3764271;77;43709;-21
2020/12/09 21:00:33;;;;;;;40.07;16.43;;;;;;;2.74;100.00;97603.88;3749831;78;44055;-21
2020/12/09 21:05:39;;;;;;;38.17;15.43;;;;;;;2.72;100.00;97599.17;3731657;77;44035;-22
2020/12/09 21:10:45;;;;;;;33.63;15.83;;;;;;;2.74;100.00;97603.88;3758042;77;43337;-21
2020/12/09 21:15:51;;;;;;;38.57;16.60;;;;;;;2.78;100.00;97606.61;3722789;78;43367;-22
2020/12/09 21:20:57;;;;;;;40.50;16.90;;;;;;;2.80;100.00;97609.63;3733439;77;43524;-23
2020/12/09 21:26:02;;;;;;;33.33;15.07;;;;;;;2.81;100.00;97609.98;3731598;78;43699;-21
2020/12/09 21:31:10;;;;;;;42.93;17.40;;;;;;;2.82;100.00;97603.69;3747845;78;42822;-20
2020/12/09 21:36:21;;;;;;;32.00;15.37;;;;;;;2.80;100.00;97589.67;3729990;77;43700;-21
2020/12/09 21:41:28;;;;;;;34.43;15.53;;;;;;;2.80;100.00;97596.33;3729786;78;44419;-21
2020/12/09 21:46:39;;;;;;;30.93;14.53;;;;;;;2.77;100.00;97598.77;3748392;78;44095;-21
2020/12/09 21:51:46;;;;;;;29.73;13.37;;;;;;;2.80;100.00;97597.66;3738175;77;43343;-21
2020/12/09 21:56:51;;;;;;;31.57;14.97;;;;;;;2.83;100.00;97581.44;3712684;78;43427;-20
2020/12/09 22:01:58;;;;;;;73.27;18.23;;;;;;;2.78;100.00;97590.64;3713306;78;44508;-21
2020/12/09 22:07:04;;;;;;;130.03;18.57;;;;;;;2.79;100.00;97588.84;3741267;77;43717;-21
2020/12/09 22:12:10;;;;;;;47.23;17.17;;;;;;;2.76;100.00;97589.94;3758259;78;44025;-21
2020/12/09 22:17:17;;;;;;;35.93;15.87;;;;;;;2.76;100.00;97580.62;3719486;78;43705;-21
2020/12/09 22:22:24;;;;;;;125.30;18.93;;;;;;;2.78;100.00;97569.37;3779395;77;44430;-21
2020/12/09 22:27:30;;;;;;;88.30;18.87;;;;;;;2.78;100.00;97566.70;3747764;77;44494;-21
2020/12/09 22:32:36;;;;;;;35.00;15.70;;;;;;;2.80;100.00;97569.73;3732358;78;44071;-21
2020/12/09 22:37:43;;;;;;;31.47;14.47;;;;;;;2.80;100.00;97568.39;3743990;77;43471;-22
2020/12/09 22:42:49;;;;;;;29.13;14.37;;;;;;;2.80;100.00;97560.41;3765301;78;44044;-21
2020/12/09 22:47:55;;;;;;;33.73;15.10;;;;;;;2.77;100.00;97552.23;3743517;78;43357;-22
2020/12/09 22:53:02;;;;;;;27.30;13.57;;;;;;;2.88;100.00;97552.13;3761875;77;43584;-22
2020/12/09 22:58:08;;;;;;;57.50;16.30;;;;;;;2.84;100.00;97549.88;3732034;78;44090;-22
2020/12/09 23:03:14;;;;;;;117.67;18.73;;;;;;;2.81;100.00;97553.66;3755624;77;44065;-22
2020/12/09 23:08:20;;;;;;;78.10;17.67;;;;;;;2.85;100.00;97552.39;3761421;77;43705;-22
2020/12/09 23:13:25;;;;;;;53.33;16.33;;;;;;;2.81;100.00;97544.81;3742425;77;44051;-21
2020/12/09 23:18:31;;;;;;;115.83;18.53;;;;;;;2.86;100.00;97545.27;3725871;78;44037;-21
2020/12/09 23:23:39;;;;;;;179.33;22.63;;;;;;;2.93;100.00;97538.42;3746701;78;43694;-22
2020/12/09 23:28:44;;;;;;;246.23;25.57;;;;;;;2.91;100.00;97533.25;3735687;78;43732;-21
2020/12/09 23:33:51;;;;;;;173.03;21.17;;;;;;;2.90;100.00;97531.56;3763966;78;43349;-21